sensor_id;sensor_type;location;lat;lon;timestamp;P1;durP1;ratioP1;P2;durP2;ratioP2
77304;SDS011;66364;52.622;7.746;2023-04-02T00:03:18;7.97;;;6.15;;
77304;SDS011;66364;52.622;7.746;2023-04-02T00:07:27;8.20;;;7.30;;
77304;SDS011;66364;52.622;7.746;2023-04-02T00:09:31;8.15;;;6.58;;
77304;SDS011;66364;52.622;7.746;2023-04-02T00:11:53;9.45;;;6.53;;
77304;SDS011;66364;52.622;7.746;2023-04-02T00:13:55;6.20;;;5.60;;
77304;SDS011;66364;52.622;7.746;2023-04-02T00:15:59;6.17;;;5.50;;
77304;SDS011;66364;52.622;7.746;2023-04-02T00:18:02;6.08;;;5.58;;
77304;SDS011;66364;52.622;7.746;2023-04-02T00:20:04;6.22;;;5.62;;
77304;SDS011;66364;52.622;7.746;2023-04-02T00:22:07;6.58;;;5.83;;
77304;SDS011;66364;52.622;7.746;2023-04-02T00:24:18;6.97;;;6.10;;
77304;SDS011;66364;52.622;7.746;2023-04-02T00:28:31;10.53;;;6.65;;
77304;SDS011;66364;52.622;7.746;2023-04-02T00:30:32;8.55;;;6.22;;
77304;SDS011;66364;52.622;7.746;2023-04-02T00:32:55;6.53;;;5.83;;
77304;SDS011;66364;52.622;7.746;2023-04-02T00:34:57;7.12;;;5.58;;
77304;SDS011;66364;52.622;7.746;2023-04-02T00:36:59;6.72;;;6.12;;
77304;SDS011;66364;52.622;7.746;2023-04-02T00:39:00;7.62;;;6.25;;
77304;SDS011;66364;52.622;7.746;2023-04-02T00:41:05;6.15;;;5.42;;
77304;SDS011;66364;52.622;7.746;2023-04-02T00:43:07;10.03;;;7.00;;
77304;SDS011;66364;52.622;7.746;2023-04-02T00:45:16;5.70;;;5.20;;
77304;SDS011;66364;52.622;7.746;2023-04-02T00:49:35;6.83;;;5.45;;
77304;SDS011;66364;52.622;7.746;2023-04-02T00:51:47;7.70;;;5.30;;
77304;SDS011;66364;52.622;7.746;2023-04-02T00:53:51;6.03;;;5.40;;
77304;SDS011;66364;52.622;7.746;2023-04-02T00:55:56;5.85;;;5.25;;
77304;SDS011;66364;52.622;7.746;2023-04-02T00:57:58;9.25;;;5.67;;
77304;SDS011;66364;52.622;7.746;2023-04-02T01:02:45;5.40;;;4.50;;
77304;SDS011;66364;52.622;7.746;2023-04-02T01:05:24;8.33;;;5.20;;
77304;SDS011;66364;52.622;7.746;2023-04-02T01:07:46;5.60;;;3.87;;
77304;SDS011;66364;52.622;7.746;2023-04-02T01:12:39;9.08;;;4.17;;
77304;SDS011;66364;52.622;7.746;2023-04-02T01:20:35;8.25;;;5.33;;
77304;SDS011;66364;52.622;7.746;2023-04-02T01:26:10;5.28;;;4.05;;
77304;SDS011;66364;52.622;7.746;2023-04-02T01:31:15;4.90;;;2.95;;
77304;SDS011;66364;52.622;7.746;2023-04-02T01:33:35;10.25;;;4.65;;
77304;SDS011;66364;52.622;7.746;2023-04-02T01:35:57;11.57;;;3.95;;
77304;SDS011;66364;52.622;7.746;2023-04-02T01:38:23;6.37;;;2.90;;
77304;SDS011;66364;52.622;7.746;2023-04-02T01:40:46;4.87;;;2.67;;
77304;SDS011;66364;52.622;7.746;2023-04-02T01:43:31;3.25;;;1.90;;
77304;SDS011;66364;52.622;7.746;2023-04-02T01:45:52;6.17;;;2.27;;
77304;SDS011;66364;52.622;7.746;2023-04-02T01:48:17;3.95;;;2.27;;
77304;SDS011;66364;52.622;7.746;2023-04-02T01:50:38;7.28;;;1.92;;
77304;SDS011;66364;52.622;7.746;2023-04-02T01:53:02;5.55;;;1.90;;
77304;SDS011;66364;52.622;7.746;2023-04-02T01:57:54;4.80;;;2.40;;
77304;SDS011;66364;52.622;7.746;2023-04-02T02:00:14;7.15;;;2.35;;
77304;SDS011;66364;52.622;7.746;2023-04-02T02:02:35;3.95;;;1.60;;
77304;SDS011;66364;52.622;7.746;2023-04-02T02:04:55;3.33;;;1.65;;
77304;SDS011;66364;52.622;7.746;2023-04-02T02:07:15;5.37;;;1.65;;
77304;SDS011;66364;52.622;7.746;2023-04-02T02:09:37;5.45;;;2.12;;
77304;SDS011;66364;52.622;7.746;2023-04-02T02:11:57;3.10;;;1.70;;
77304;SDS011;66364;52.622;7.746;2023-04-02T02:14:19;5.35;;;2.77;;
77304;SDS011;66364;52.622;7.746;2023-04-02T02:16:41;2.90;;;1.60;;
77304;SDS011;66364;52.622;7.746;2023-04-02T02:19:01;1.98;;;1.50;;
77304;SDS011;66364;52.622;7.746;2023-04-02T02:21:26;3.60;;;1.30;;
77304;SDS011;66364;52.622;7.746;2023-04-02T02:23:52;2.67;;;2.05;;
77304;SDS011;66364;52.622;7.746;2023-04-02T02:28:54;3.17;;;1.52;;
77304;SDS011;66364;52.622;7.746;2023-04-02T02:31:17;4.20;;;1.90;;
77304;SDS011;66364;52.622;7.746;2023-04-02T02:33:57;5.12;;;1.50;;
77304;SDS011;66364;52.622;7.746;2023-04-02T02:39:28;3.00;;;1.95;;
77304;SDS011;66364;52.622;7.746;2023-04-02T02:42:53;3.60;;;1.70;;
77304;SDS011;66364;52.622;7.746;2023-04-02T02:44:36;1.75;;;1.30;;
77304;SDS011;66364;52.622;7.746;2023-04-02T02:47:00;4.35;;;2.22;;
77304;SDS011;66364;52.622;7.746;2023-04-02T02:49:24;6.67;;;1.95;;
77304;SDS011;66364;52.622;7.746;2023-04-02T02:51:51;2.98;;;1.60;;
77304;SDS011;66364;52.622;7.746;2023-04-02T02:54:09;5.58;;;1.50;;
77304;SDS011;66364;52.622;7.746;2023-04-02T02:56:30;3.83;;;1.45;;
77304;SDS011;66364;52.622;7.746;2023-04-02T02:58:53;4.15;;;2.20;;
77304;SDS011;66364;52.622;7.746;2023-04-02T03:01:13;4.67;;;2.20;;
77304;SDS011;66364;52.622;7.746;2023-04-02T03:03:33;2.05;;;1.40;;
77304;SDS011;66364;52.622;7.746;2023-04-02T03:05:54;3.77;;;2.00;;
77304;SDS011;66364;52.622;7.746;2023-04-02T03:11:32;4.95;;;1.85;;
77304;SDS011;66364;52.622;7.746;2023-04-02T03:14:04;4.97;;;1.50;;
77304;SDS011;66364;52.622;7.746;2023-04-02T03:16:27;9.93;;;2.08;;
77304;SDS011;66364;52.622;7.746;2023-04-02T03:21:19;5.20;;;1.85;;
77304;SDS011;66364;52.622;7.746;2023-04-02T03:23:56;4.15;;;1.40;;
77304;SDS011;66364;52.622;7.746;2023-04-02T03:26:41;3.98;;;2.05;;
77304;SDS011;66364;52.622;7.746;2023-04-02T03:29:19;3.90;;;1.32;;
77304;SDS011;66364;52.622;7.746;2023-04-02T03:32:02;7.47;;;2.33;;
77304;SDS011;66364;52.622;7.746;2023-04-02T03:34:24;6.15;;;2.00;;
77304;SDS011;66364;52.622;7.746;2023-04-02T03:37:06;5.03;;;2.35;;
77304;SDS011;66364;52.622;7.746;2023-04-02T03:47:18;2.67;;;1.35;;
77304;SDS011;66364;52.622;7.746;2023-04-02T03:49:43;2.42;;;1.25;;
77304;SDS011;66364;52.622;7.746;2023-04-02T03:52:08;6.62;;;2.37;;
77304;SDS011;66364;52.622;7.746;2023-04-02T03:54:46;2.02;;;1.82;;
77304;SDS011;66364;52.622;7.746;2023-04-02T03:57:10;3.80;;;2.47;;
77304;SDS011;66364;52.622;7.746;2023-04-02T04:02:33;4.70;;;1.85;;
77304;SDS011;66364;52.622;7.746;2023-04-02T04:04:53;2.33;;;1.77;;
77304;SDS011;66364;52.622;7.746;2023-04-02T04:09:55;4.42;;;1.80;;
77304;SDS011;66364;52.622;7.746;2023-04-02T04:12:29;5.17;;;2.22;;
77304;SDS011;66364;52.622;7.746;2023-04-02T04:14:52;4.72;;;1.52;;
77304;SDS011;66364;52.622;7.746;2023-04-02T04:17:14;3.83;;;1.57;;
77304;SDS011;66364;52.622;7.746;2023-04-02T04:22:10;3.72;;;1.72;;
77304;SDS011;66364;52.622;7.746;2023-04-02T04:24:31;2.77;;;1.30;;
77304;SDS011;66364;52.622;7.746;2023-04-02T04:26:57;2.60;;;1.90;;
77304;SDS011;66364;52.622;7.746;2023-04-02T04:29:40;2.87;;;1.50;;
77304;SDS011;66364;52.622;7.746;2023-04-02T04:32:30;6.10;;;1.82;;
77304;SDS011;66364;52.622;7.746;2023-04-02T04:34:49;2.40;;;1.52;;
77304;SDS011;66364;52.622;7.746;2023-04-02T04:37:22;5.12;;;2.25;;
77304;SDS011;66364;52.622;7.746;2023-04-02T04:42:03;3.75;;;2.15;;
77304;SDS011;66364;52.622;7.746;2023-04-02T04:44:35;6.55;;;1.95;;
77304;SDS011;66364;52.622;7.746;2023-04-02T04:46:59;2.70;;;1.60;;
77304;SDS011;66364;52.622;7.746;2023-04-02T04:49:22;8.68;;;1.65;;
77304;SDS011;66364;52.622;7.746;2023-04-02T04:51:46;2.70;;;1.90;;
77304;SDS011;66364;52.622;7.746;2023-04-02T04:54:17;3.30;;;1.85;;
77304;SDS011;66364;52.622;7.746;2023-04-02T04:56:37;2.02;;;1.80;;
77304;SDS011;66364;52.622;7.746;2023-04-02T04:59:01;4.90;;;2.08;;
77304;SDS011;66364;52.622;7.746;2023-04-02T05:01:36;3.67;;;2.65;;
77304;SDS011;66364;52.622;7.746;2023-04-02T05:09:03;3.45;;;1.92;;
77304;SDS011;66364;52.622;7.746;2023-04-02T05:11:31;1.85;;;1.70;;
77304;SDS011;66364;52.622;7.746;2023-04-02T05:14:14;5.97;;;1.45;;
77304;SDS011;66364;52.622;7.746;2023-04-02T05:19:31;4.62;;;1.50;;
77304;SDS011;66364;52.622;7.746;2023-04-02T05:27:38;4.50;;;1.85;;
77304;SDS011;66364;52.622;7.746;2023-04-02T05:32:36;2.20;;;1.47;;
77304;SDS011;66364;52.622;7.746;2023-04-02T05:34:59;3.58;;;1.27;;
77304;SDS011;66364;52.622;7.746;2023-04-02T05:37:21;3.62;;;1.90;;
77304;SDS011;66364;52.622;7.746;2023-04-02T05:39:43;2.70;;;1.60;;
77304;SDS011;66364;52.622;7.746;2023-04-02T05:42:05;3.90;;;1.98;;
77304;SDS011;66364;52.622;7.746;2023-04-02T05:44:28;3.37;;;1.65;;
77304;SDS011;66364;52.622;7.746;2023-04-02T05:47:00;4.42;;;1.60;;
77304;SDS011;66364;52.622;7.746;2023-04-02T05:49:26;4.28;;;2.58;;
77304;SDS011;66364;52.622;7.746;2023-04-02T05:51:51;3.65;;;1.80;;
77304;SDS011;66364;52.622;7.746;2023-04-02T05:54:16;1.42;;;1.32;;
77304;SDS011;66364;52.622;7.746;2023-04-02T05:56:41;8.70;;;2.12;;
77304;SDS011;66364;52.622;7.746;2023-04-02T05:59:10;4.22;;;1.40;;
77304;SDS011;66364;52.622;7.746;2023-04-02T06:09:04;3.05;;;1.90;;
77304;SDS011;66364;52.622;7.746;2023-04-02T06:11:22;3.08;;;1.90;;
77304;SDS011;66364;52.622;7.746;2023-04-02T06:13:44;3.15;;;1.92;;
77304;SDS011;66364;52.622;7.746;2023-04-02T06:16:04;3.55;;;1.50;;
77304;SDS011;66364;52.622;7.746;2023-04-02T06:18:27;4.58;;;1.85;;
77304;SDS011;66364;52.622;7.746;2023-04-02T06:20:49;5.17;;;1.90;;
77304;SDS011;66364;52.622;7.746;2023-04-02T06:23:13;3.67;;;1.90;;
77304;SDS011;66364;52.622;7.746;2023-04-02T06:25:54;3.55;;;2.47;;
77304;SDS011;66364;52.622;7.746;2023-04-02T06:28:14;2.33;;;1.50;;
77304;SDS011;66364;52.622;7.746;2023-04-02T06:30:42;2.77;;;2.10;;
77304;SDS011;66364;52.622;7.746;2023-04-02T06:33:24;5.92;;;3.00;;
77304;SDS011;66364;52.622;7.746;2023-04-02T06:35:43;4.95;;;3.25;;
77304;SDS011;66364;52.622;7.746;2023-04-02T06:38:03;4.83;;;1.85;;
77304;SDS011;66364;52.622;7.746;2023-04-02T06:40:38;3.75;;;2.05;;
77304;SDS011;66364;52.622;7.746;2023-04-02T06:45:54;3.35;;;1.70;;
77304;SDS011;66364;52.622;7.746;2023-04-02T06:48:17;3.17;;;1.82;;
77304;SDS011;66364;52.622;7.746;2023-04-02T06:53:03;2.58;;;1.80;;
77304;SDS011;66364;52.622;7.746;2023-04-02T06:57:47;4.92;;;2.67;;
77304;SDS011;66364;52.622;7.746;2023-04-02T07:00:10;4.17;;;1.80;;
77304;SDS011;66364;52.622;7.746;2023-04-02T07:02:33;4.37;;;1.70;;
77304;SDS011;66364;52.622;7.746;2023-04-02T07:04:57;4.65;;;1.98;;
77304;SDS011;66364;52.622;7.746;2023-04-02T07:07:18;2.45;;;1.45;;
77304;SDS011;66364;52.622;7.746;2023-04-02T07:09:38;4.15;;;1.90;;
77304;SDS011;66364;52.622;7.746;2023-04-02T07:11:57;3.75;;;2.25;;
77304;SDS011;66364;52.622;7.746;2023-04-02T07:14:18;3.25;;;2.05;;
77304;SDS011;66364;52.622;7.746;2023-04-02T07:16:38;2.98;;;1.52;;
77304;SDS011;66364;52.622;7.746;2023-04-02T07:18:59;3.95;;;1.90;;
77304;SDS011;66364;52.622;7.746;2023-04-02T07:21:20;2.25;;;1.67;;
77304;SDS011;66364;52.622;7.746;2023-04-02T07:23:40;2.75;;;1.50;;
77304;SDS011;66364;52.622;7.746;2023-04-02T07:26:00;4.85;;;1.87;;
77304;SDS011;66364;52.622;7.746;2023-04-02T07:28:19;3.65;;;1.70;;
77304;SDS011;66364;52.622;7.746;2023-04-02T07:30:40;4.47;;;1.98;;
77304;SDS011;66364;52.622;7.746;2023-04-02T07:33:00;3.10;;;1.42;;
77304;SDS011;66364;52.622;7.746;2023-04-02T07:35:20;2.42;;;1.65;;
77304;SDS011;66364;52.622;7.746;2023-04-02T07:37:40;2.08;;;1.30;;
77304;SDS011;66364;52.622;7.746;2023-04-02T07:39:59;1.72;;;1.60;;
77304;SDS011;66364;52.622;7.746;2023-04-02T07:42:18;2.75;;;1.52;;
77304;SDS011;66364;52.622;7.746;2023-04-02T07:44:19;2.23;;;1.60;;
77304;SDS011;66364;52.622;7.746;2023-04-02T07:46:20;4.55;;;2.08;;
77304;SDS011;66364;52.622;7.746;2023-04-02T07:50:55;4.67;;;1.35;;
77304;SDS011;66364;52.622;7.746;2023-04-02T07:52:57;3.10;;;1.70;;
77304;SDS011;66364;52.622;7.746;2023-04-02T07:54:59;2.33;;;1.60;;
77304;SDS011;66364;52.622;7.746;2023-04-02T07:57:00;3.00;;;1.52;;
77304;SDS011;66364;52.622;7.746;2023-04-02T07:59:01;2.75;;;1.62;;
77304;SDS011;66364;52.622;7.746;2023-04-02T08:01:03;4.80;;;1.40;;
77304;SDS011;66364;52.622;7.746;2023-04-02T08:03:04;4.62;;;1.80;;
77304;SDS011;66364;52.622;7.746;2023-04-02T08:05:05;3.87;;;1.70;;
77304;SDS011;66364;52.622;7.746;2023-04-02T08:07:08;2.52;;;1.70;;
77304;SDS011;66364;52.622;7.746;2023-04-02T08:09:18;3.83;;;1.80;;
77304;SDS011;66364;52.622;7.746;2023-04-02T08:11:19;4.08;;;1.55;;
77304;SDS011;66364;52.622;7.746;2023-04-02T08:13:20;1.77;;;1.67;;
77304;SDS011;66364;52.622;7.746;2023-04-02T08:15:21;3.70;;;1.73;;
77304;SDS011;66364;52.622;7.746;2023-04-02T08:17:22;2.25;;;1.60;;
77304;SDS011;66364;52.622;7.746;2023-04-02T08:19:23;1.70;;;1.60;;
77304;SDS011;66364;52.622;7.746;2023-04-02T08:21:24;4.83;;;2.72;;
77304;SDS011;66364;52.622;7.746;2023-04-02T08:23:25;4.65;;;3.62;;
77304;SDS011;66364;52.622;7.746;2023-04-02T08:25:27;2.58;;;2.20;;
77304;SDS011;66364;52.622;7.746;2023-04-02T08:27:28;1.72;;;1.40;;
77304;SDS011;66364;52.622;7.746;2023-04-02T08:29:29;6.03;;;1.93;;
77304;SDS011;66364;52.622;7.746;2023-04-02T08:31:30;3.35;;;2.00;;
77304;SDS011;66364;52.622;7.746;2023-04-02T08:33:31;4.80;;;1.70;;
77304;SDS011;66364;52.622;7.746;2023-04-02T08:35:33;3.05;;;1.85;;
77304;SDS011;66364;52.622;7.746;2023-04-02T08:37:34;2.40;;;2.17;;
77304;SDS011;66364;52.622;7.746;2023-04-02T08:39:34;2.37;;;1.70;;
77304;SDS011;66364;52.622;7.746;2023-04-02T08:41:37;3.55;;;1.85;;
77304;SDS011;66364;52.622;7.746;2023-04-02T08:48:24;2.55;;;1.50;;
77304;SDS011;66364;52.622;7.746;2023-04-02T08:50:30;4.47;;;2.00;;
77304;SDS011;66364;52.622;7.746;2023-04-02T08:52:35;2.60;;;1.60;;
77304;SDS011;66364;52.622;7.746;2023-04-02T08:54:38;2.52;;;1.52;;
77304;SDS011;66364;52.622;7.746;2023-04-02T08:56:43;5.87;;;1.67;;
77304;SDS011;66364;52.622;7.746;2023-04-02T08:58:47;1.37;;;1.05;;
77304;SDS011;66364;52.622;7.746;2023-04-02T09:00:54;2.58;;;1.47;;
77304;SDS011;66364;52.622;7.746;2023-04-02T09:02:56;2.35;;;1.40;;
77304;SDS011;66364;52.622;7.746;2023-04-02T09:05:02;1.90;;;1.55;;
77304;SDS011;66364;52.622;7.746;2023-04-02T09:07:07;1.60;;;1.50;;
77304;SDS011;66364;52.622;7.746;2023-04-02T09:09:11;1.37;;;1.27;;
77304;SDS011;66364;52.622;7.746;2023-04-02T09:13:39;2.65;;;1.22;;
77304;SDS011;66364;52.622;7.746;2023-04-02T09:15:42;1.72;;;1.60;;
77304;SDS011;66364;52.622;7.746;2023-04-02T09:17:44;2.47;;;1.27;;
77304;SDS011;66364;52.622;7.746;2023-04-02T09:19:56;2.40;;;1.40;;
77304;SDS011;66364;52.622;7.746;2023-04-02T09:24:20;4.87;;;0.95;;
77304;SDS011;66364;52.622;7.746;2023-04-02T09:26:26;2.25;;;1.35;;
77304;SDS011;66364;52.622;7.746;2023-04-02T09:28:29;2.85;;;1.82;;
77304;SDS011;66364;52.622;7.746;2023-04-02T09:30:39;1.67;;;1.00;;
77304;SDS011;66364;52.622;7.746;2023-04-02T09:32:48;4.00;;;1.80;;
77304;SDS011;66364;52.622;7.746;2023-04-02T09:37:19;1.52;;;1.05;;
77304;SDS011;66364;52.622;7.746;2023-04-02T09:39:23;1.72;;;1.10;;
77304;SDS011;66364;52.622;7.746;2023-04-02T09:41:26;2.95;;;1.35;;
77304;SDS011;66364;52.622;7.746;2023-04-02T09:43:30;2.20;;;1.55;;
77304;SDS011;66364;52.622;7.746;2023-04-02T09:45:32;2.60;;;1.22;;
77304;SDS011;66364;52.622;7.746;2023-04-02T09:47:34;2.72;;;1.42;;
77304;SDS011;66364;52.622;7.746;2023-04-02T09:49:36;2.40;;;1.77;;
77304;SDS011;66364;52.622;7.746;2023-04-02T09:51:38;3.72;;;1.10;;
77304;SDS011;66364;52.622;7.746;2023-04-02T09:53:41;3.23;;;1.13;;
77304;SDS011;66364;52.622;7.746;2023-04-02T09:55:49;5.42;;;1.90;;
77304;SDS011;66364;52.622;7.746;2023-04-02T10:00:49;2.87;;;1.42;;
77304;SDS011;66364;52.622;7.746;2023-04-02T10:03:16;1.40;;;1.22;;
77304;SDS011;66364;52.622;7.746;2023-04-02T10:05:17;4.17;;;1.75;;
77304;SDS011;66364;52.622;7.746;2023-04-02T10:09:39;2.47;;;1.35;;
77304;SDS011;66364;52.622;7.746;2023-04-02T10:11:41;2.67;;;1.30;;
77304;SDS011;66364;52.622;7.746;2023-04-02T10:13:48;1.90;;;1.37;;
77304;SDS011;66364;52.622;7.746;2023-04-02T10:16:06;4.10;;;1.20;;
77304;SDS011;66364;52.622;7.746;2023-04-02T10:20:17;3.72;;;1.42;;
77304;SDS011;66364;52.622;7.746;2023-04-02T10:22:22;2.58;;;1.40;;
77304;SDS011;66364;52.622;7.746;2023-04-02T10:24:25;2.45;;;1.22;;
77304;SDS011;66364;52.622;7.746;2023-04-02T10:26:33;2.95;;;1.35;;
77304;SDS011;66364;52.622;7.746;2023-04-02T10:28:40;1.30;;;1.10;;
77304;SDS011;66364;52.622;7.746;2023-04-02T10:31:22;6.67;;;1.55;;
77304;SDS011;66364;52.622;7.746;2023-04-02T10:33:35;2.85;;;1.30;;
77304;SDS011;66364;52.622;7.746;2023-04-02T10:38:11;3.20;;;1.30;;
77304;SDS011;66364;52.622;7.746;2023-04-02T10:44:59;4.05;;;1.80;;
77304;SDS011;66364;52.622;7.746;2023-04-02T10:56:14;3.08;;;1.50;;
77304;SDS011;66364;52.622;7.746;2023-04-02T10:58:18;5.95;;;1.65;;
77304;SDS011;66364;52.622;7.746;2023-04-02T11:00:27;3.15;;;1.20;;
77304;SDS011;66364;52.622;7.746;2023-04-02T11:02:31;2.35;;;1.10;;
77304;SDS011;66364;52.622;7.746;2023-04-02T11:04:51;5.83;;;1.20;;
77304;SDS011;66364;52.622;7.746;2023-04-02T11:08:59;2.52;;;1.87;;
77304;SDS011;66364;52.622;7.746;2023-04-02T11:15:33;3.40;;;1.30;;
77304;SDS011;66364;52.622;7.746;2023-04-02T11:17:35;2.22;;;1.20;;
77304;SDS011;66364;52.622;7.746;2023-04-02T11:19:37;8.38;;;2.40;;
77304;SDS011;66364;52.622;7.746;2023-04-02T11:21:42;3.58;;;1.45;;
77304;SDS011;66364;52.622;7.746;2023-04-02T11:23:53;2.10;;;1.12;;
77304;SDS011;66364;52.622;7.746;2023-04-02T11:28:32;4.28;;;1.90;;
77304;SDS011;66364;52.622;7.746;2023-04-02T11:30:34;2.20;;;1.00;;
77304;SDS011;66364;52.622;7.746;2023-04-02T11:32:39;2.90;;;1.60;;
77304;SDS011;66364;52.622;7.746;2023-04-02T11:38:54;3.35;;;1.40;;
77304;SDS011;66364;52.622;7.746;2023-04-02T11:40:56;4.20;;;2.73;;
77304;SDS011;66364;52.622;7.746;2023-04-02T11:43:04;2.27;;;1.05;;
77304;SDS011;66364;52.622;7.746;2023-04-02T11:47:26;3.65;;;1.57;;
77304;SDS011;66364;52.622;7.746;2023-04-02T11:49:31;2.08;;;1.50;;
77304;SDS011;66364;52.622;7.746;2023-04-02T11:51:46;0.90;;;0.70;;
77304;SDS011;66364;52.622;7.746;2023-04-02T11:53:40;2.58;;;1.30;;
77304;SDS011;66364;52.622;7.746;2023-04-02T12:00:32;2.05;;;1.20;;
77304;SDS011;66364;52.622;7.746;2023-04-02T12:05:15;2.20;;;0.90;;
77304;SDS011;66364;52.622;7.746;2023-04-02T12:09:58;1.50;;;1.12;;
77304;SDS011;66364;52.622;7.746;2023-04-02T12:12:14;1.60;;;1.00;;
77304;SDS011;66364;52.622;7.746;2023-04-02T12:16:34;2.00;;;1.35;;
77304;SDS011;66364;52.622;7.746;2023-04-02T12:18:35;2.72;;;1.27;;
77304;SDS011;66364;52.622;7.746;2023-04-02T12:20:47;2.33;;;1.40;;
77304;SDS011;66364;52.622;7.746;2023-04-02T12:22:53;3.22;;;1.20;;
77304;SDS011;66364;52.622;7.746;2023-04-02T12:25:00;1.20;;;0.88;;
77304;SDS011;66364;52.622;7.746;2023-04-02T12:27:09;3.52;;;1.40;;
77304;SDS011;66364;52.622;7.746;2023-04-02T12:31:26;3.83;;;1.72;;
77304;SDS011;66364;52.622;7.746;2023-04-02T12:33:28;4.62;;;1.52;;
77304;SDS011;66364;52.622;7.746;2023-04-02T12:35:33;2.05;;;1.07;;
77304;SDS011;66364;52.622;7.746;2023-04-02T12:37:35;1.45;;;0.80;;
77304;SDS011;66364;52.622;7.746;2023-04-02T12:39:35;2.10;;;1.27;;
77304;SDS011;66364;52.622;7.746;2023-04-02T12:41:37;3.17;;;1.60;;
77304;SDS011;66364;52.622;7.746;2023-04-02T12:43:38;1.35;;;1.17;;
77304;SDS011;66364;52.622;7.746;2023-04-02T12:45:39;2.27;;;1.35;;
77304;SDS011;66364;52.622;7.746;2023-04-02T12:47:43;2.35;;;1.37;;
77304;SDS011;66364;52.622;7.746;2023-04-02T12:49:44;2.08;;;1.12;;
77304;SDS011;66364;52.622;7.746;2023-04-02T12:51:46;4.65;;;1.65;;
77304;SDS011;66364;52.622;7.746;2023-04-02T12:53:49;1.75;;;1.00;;
77304;SDS011;66364;52.622;7.746;2023-04-02T12:55:52;3.95;;;1.50;;
77304;SDS011;66364;52.622;7.746;2023-04-02T12:57:56;1.80;;;1.15;;
77304;SDS011;66364;52.622;7.746;2023-04-02T13:02:25;2.10;;;1.17;;
77304;SDS011;66364;52.622;7.746;2023-04-02T13:04:28;2.80;;;1.40;;
77304;SDS011;66364;52.622;7.746;2023-04-02T13:06:29;2.10;;;1.23;;
77304;SDS011;66364;52.622;7.746;2023-04-02T13:08:35;3.12;;;1.40;;
77304;SDS011;66364;52.622;7.746;2023-04-02T13:10:39;1.57;;;0.82;;
77304;SDS011;66364;52.622;7.746;2023-04-02T13:12:40;2.35;;;1.40;;
77304;SDS011;66364;52.622;7.746;2023-04-02T13:14:42;3.08;;;1.00;;
77304;SDS011;66364;52.622;7.746;2023-04-02T13:16:43;1.37;;;1.00;;
77304;SDS011;66364;52.622;7.746;2023-04-02T13:18:45;2.75;;;1.52;;
77304;SDS011;66364;52.622;7.746;2023-04-02T13:25:28;1.22;;;0.90;;
77304;SDS011;66364;52.622;7.746;2023-04-02T13:27:34;1.72;;;1.62;;
77304;SDS011;66364;52.622;7.746;2023-04-02T13:29:36;2.08;;;1.17;;
77304;SDS011;66364;52.622;7.746;2023-04-02T13:31:37;1.65;;;0.90;;
77304;SDS011;66364;52.622;7.746;2023-04-02T13:33:39;1.30;;;1.00;;
77304;SDS011;66364;52.622;7.746;2023-04-02T13:35:40;5.03;;;1.42;;
77304;SDS011;66364;52.622;7.746;2023-04-02T13:37:42;2.85;;;1.00;;
77304;SDS011;66364;52.622;7.746;2023-04-02T13:39:43;1.55;;;1.15;;
77304;SDS011;66364;52.622;7.746;2023-04-02T13:41:49;1.90;;;1.25;;
77304;SDS011;66364;52.622;7.746;2023-04-02T13:44:01;3.15;;;1.42;;
77304;SDS011;66364;52.622;7.746;2023-04-02T13:46:04;3.35;;;1.40;;
77304;SDS011;66364;52.622;7.746;2023-04-02T13:48:12;2.65;;;1.00;;
77304;SDS011;66364;52.622;7.746;2023-04-02T13:50:16;2.77;;;1.10;;
77304;SDS011;66364;52.622;7.746;2023-04-02T13:52:19;1.70;;;1.20;;
77304;SDS011;66364;52.622;7.746;2023-04-02T13:54:22;1.67;;;1.00;;
77304;SDS011;66364;52.622;7.746;2023-04-02T13:56:26;2.40;;;1.07;;
77304;SDS011;66364;52.622;7.746;2023-04-02T13:58:26;3.10;;;1.00;;
77304;SDS011;66364;52.622;7.746;2023-04-02T14:00:27;3.00;;;1.80;;
77304;SDS011;66364;52.622;7.746;2023-04-02T14:02:29;4.30;;;1.55;;
77304;SDS011;66364;52.622;7.746;2023-04-02T14:04:32;1.65;;;1.00;;
77304;SDS011;66364;52.622;7.746;2023-04-02T14:09:02;2.45;;;0.85;;
77304;SDS011;66364;52.622;7.746;2023-04-02T14:11:27;1.98;;;1.00;;
77304;SDS011;66364;52.622;7.746;2023-04-02T14:15:47;2.98;;;0.82;;
77304;SDS011;66364;52.622;7.746;2023-04-02T14:24:43;2.80;;;1.47;;
77304;SDS011;66364;52.622;7.746;2023-04-02T14:34:17;2.20;;;1.07;;
77304;SDS011;66364;52.622;7.746;2023-04-02T14:46:12;4.50;;;1.30;;
77304;SDS011;66364;52.622;7.746;2023-04-02T14:50:29;1.52;;;1.05;;
77304;SDS011;66364;52.622;7.746;2023-04-02T14:52:32;3.35;;;1.10;;
77304;SDS011;66364;52.622;7.746;2023-04-02T14:54:42;2.70;;;1.00;;
77304;SDS011;66364;52.622;7.746;2023-04-02T14:56:54;3.50;;;1.02;;
77304;SDS011;66364;52.622;7.746;2023-04-02T14:59:04;2.00;;;1.05;;
77304;SDS011;66364;52.622;7.746;2023-04-02T15:01:12;2.17;;;1.00;;
77304;SDS011;66364;52.622;7.746;2023-04-02T15:03:17;1.20;;;0.70;;
77304;SDS011;66364;52.622;7.746;2023-04-02T15:05:20;1.60;;;1.05;;
77304;SDS011;66364;52.622;7.746;2023-04-02T15:07:38;1.25;;;1.15;;
77304;SDS011;66364;52.622;7.746;2023-04-02T15:09:43;2.37;;;1.00;;
77304;SDS011;66364;52.622;7.746;2023-04-02T15:11:50;5.47;;;1.05;;
77304;SDS011;66364;52.622;7.746;2023-04-02T15:14:04;3.33;;;3.08;;
77304;SDS011;66364;52.622;7.746;2023-04-02T15:16:18;2.58;;;1.47;;
77304;SDS011;66364;52.622;7.746;2023-04-02T15:18:21;2.00;;;1.60;;
77304;SDS011;66364;52.622;7.746;2023-04-02T15:20:22;3.80;;;1.55;;
77304;SDS011;66364;52.622;7.746;2023-04-02T15:22:45;6.53;;;2.62;;
77304;SDS011;66364;52.622;7.746;2023-04-02T15:27:24;1.85;;;1.27;;
77304;SDS011;66364;52.622;7.746;2023-04-02T15:34:32;1.20;;;1.10;;
77304;SDS011;66364;52.622;7.746;2023-04-02T15:36:47;2.10;;;1.42;;
77304;SDS011;66364;52.622;7.746;2023-04-02T15:38:55;3.17;;;1.87;;
77304;SDS011;66364;52.622;7.746;2023-04-02T15:50:36;1.98;;;1.25;;
77304;SDS011;66364;52.622;7.746;2023-04-02T15:52:53;1.40;;;0.93;;
77304;SDS011;66364;52.622;7.746;2023-04-02T15:55:28;1.98;;;0.70;;
77304;SDS011;66364;52.622;7.746;2023-04-02T15:59:56;1.60;;;0.98;;
77304;SDS011;66364;52.622;7.746;2023-04-02T16:01:58;1.10;;;0.70;;
77304;SDS011;66364;52.622;7.746;2023-04-02T16:06:25;2.40;;;0.90;;
77304;SDS011;66364;52.622;7.746;2023-04-02T16:08:59;2.08;;;1.10;;
77304;SDS011;66364;52.622;7.746;2023-04-02T16:11:05;2.22;;;0.82;;
77304;SDS011;66364;52.622;7.746;2023-04-02T16:17:35;4.83;;;1.10;;
77304;SDS011;66364;52.622;7.746;2023-04-02T16:19:40;2.27;;;0.80;;
77304;SDS011;66364;52.622;7.746;2023-04-02T16:22:02;2.77;;;0.78;;
77304;SDS011;66364;52.622;7.746;2023-04-02T16:24:19;1.60;;;1.47;;
77304;SDS011;66364;52.622;7.746;2023-04-02T16:31:12;4.28;;;2.27;;
77304;SDS011;66364;52.622;7.746;2023-04-02T16:35:59;4.10;;;1.77;;
77304;SDS011;66364;52.622;7.746;2023-04-02T16:44:53;1.92;;;1.52;;
77304;SDS011;66364;52.622;7.746;2023-04-02T17:01:32;2.22;;;1.25;;
77304;SDS011;66364;52.622;7.746;2023-04-02T17:06:00;1.80;;;1.00;;
77304;SDS011;66364;52.622;7.746;2023-04-02T17:12:47;1.55;;;1.45;;
77304;SDS011;66364;52.622;7.746;2023-04-02T17:15:02;4.22;;;1.17;;
77304;SDS011;66364;52.622;7.746;2023-04-02T17:17:07;1.92;;;1.22;;
77304;SDS011;66364;52.622;7.746;2023-04-02T17:19:09;3.35;;;1.30;;
77304;SDS011;66364;52.622;7.746;2023-04-02T17:21:16;2.92;;;1.20;;
77304;SDS011;66364;52.622;7.746;2023-04-02T17:23:18;2.33;;;1.32;;
77304;SDS011;66364;52.622;7.746;2023-04-02T17:25:27;2.58;;;1.22;;
77304;SDS011;66364;52.622;7.746;2023-04-02T17:27:37;3.70;;;1.80;;
77304;SDS011;66364;52.622;7.746;2023-04-02T17:29:41;2.50;;;1.47;;
77304;SDS011;66364;52.622;7.746;2023-04-02T17:31:44;4.87;;;1.87;;
77304;SDS011;66364;52.622;7.746;2023-04-02T17:33:46;2.70;;;1.30;;
77304;SDS011;66364;52.622;7.746;2023-04-02T17:35:51;4.42;;;1.15;;
77304;SDS011;66364;52.622;7.746;2023-04-02T17:38:04;1.10;;;1.00;;